sensor_id;sensor_type;location;lat;lon;timestamp;pressure;altitude;pressure_sealevel;temperature;humidity
79123;BME280;68526;44.600;26.032;2023-04-24T00:00:07;100307.47;;;11.79;69.86
79123;BME280;68526;44.600;26.032;2023-04-24T00:00:24;100311.03;;;11.80;69.92
79123;BME280;68526;44.600;26.032;2023-04-24T00:00:40;100311.84;;;11.80;69.76
79123;BME280;68526;44.600;26.032;2023-04-24T00:00:57;100307.81;;;11.77;70.13
79123;BME280;68526;44.600;26.032;2023-04-24T00:01:12;100307.47;;;11.79;69.78
79123;BME280;68526;44.600;26.032;2023-04-24T00:01:28;100314.91;;;11.78;69.58
79123;BME280;68526;44.600;26.032;2023-04-24T00:01:45;100304.72;;;11.79;70.09
79123;BME280;68526;44.600;26.032;2023-04-24T00:02:01;100310.22;;;11.79;69.64
79123;BME280;68526;44.600;26.032;2023-04-24T00:02:17;100310.22;;;11.79;69.44
79123;BME280;68526;44.600;26.032;2023-04-24T00:02:34;100306.66;;;11.78;69.78
79123;BME280;68526;44.600;26.032;2023-04-24T00:02:50;100313.31;;;11.77;70.03
79123;BME280;68526;44.600;26.032;2023-04-24T00:03:06;100308.94;;;11.76;69.97
79123;BME280;68526;44.600;26.032;2023-04-24T00:03:23;100313.31;;;11.77;69.93
79123;BME280;68526;44.600;26.032;2023-04-24T00:03:39;100307.81;;;11.77;70.11
79123;BME280;68526;44.600;26.032;2023-04-24T00:03:55;100312.03;;;11.75;70.09
79123;BME280;68526;44.600;26.032;2023-04-24T00:04:11;100310.88;;;11.76;70.19
79123;BME280;68526;44.600;26.032;2023-04-24T00:04:29;100315.56;;;11.75;70.13
79123;BME280;68526;44.600;26.032;2023-04-24T00:04:47;100310.09;;;11.75;70.02
79123;BME280;68526;44.600;26.032;2023-04-24T00:05:04;100312.34;;;11.73;70.33
79123;BME280;68526;44.600;26.032;2023-04-24T00:05:20;100304.09;;;11.73;70.18
79123;BME280;68526;44.600;26.032;2023-04-24T00:05:37;100304.94;;;11.74;70.31
79123;BME280;68526;44.600;26.032;2023-04-24T00:05:53;100310.44;;;11.74;69.76
79123;BME280;68526;44.600;26.032;2023-04-24T00:06:10;100307.69;;;11.74;69.84
79123;BME280;68526;44.600;26.032;2023-04-24T00:06:26;100306.53;;;11.75;69.77
79123;BME280;68526;44.600;26.032;2023-04-24T00:06:49;100304.59;;;11.75;69.97
79123;BME280;68526;44.600;26.032;2023-04-24T00:07:09;100303.78;;;11.75;70.25
79123;BME280;68526;44.600;26.032;2023-04-24T00:07:25;100307.34;;;11.75;70.04
79123;BME280;68526;44.600;26.032;2023-04-24T00:07:42;100301.84;;;11.75;70.07
79123;BME280;68526;44.600;26.032;2023-04-24T00:07:58;100308.47;;;11.74;70.01
79123;BME280;68526;44.600;26.032;2023-04-24T00:08:14;100305.41;;;11.76;70.04
79123;BME280;68526;44.600;26.032;2023-04-24T00:08:30;100308.16;;;11.76;69.94
79123;BME280;68526;44.600;26.032;2023-04-24T00:08:45;100307.00;;;11.77;70.01
79123;BME280;68526;44.600;26.032;2023-04-24T00:09:01;100301.84;;;11.75;69.46
79123;BME280;68526;44.600;26.032;2023-04-24T00:09:18;100300.72;;;11.76;69.98
79123;BME280;68526;44.600;26.032;2023-04-24T00:09:34;100301.84;;;11.75;69.71
79123;BME280;68526;44.600;26.032;2023-04-24T00:09:50;100303.47;;;11.76;69.77
79123;BME280;68526;44.600;26.032;2023-04-24T00:10:07;100306.53;;;11.75;69.94
79123;BME280;68526;44.600;26.032;2023-04-24T00:10:23;100307.69;;;11.74;69.92
79123;BME280;68526;44.600;26.032;2023-04-24T00:10:39;100304.94;;;11.74;69.54
79123;BME280;68526;44.600;26.032;2023-04-24T00:10:55;100306.03;;;11.73;69.32
79123;BME280;68526;44.600;26.032;2023-04-24T00:11:12;100312.34;;;11.73;69.57
79123;BME280;68526;44.600;26.032;2023-04-24T00:11:28;100301.34;;;11.73;69.68
79123;BME280;68526;44.600;26.032;2023-04-24T00:11:44;100304.94;;;11.74;69.69
79123;BME280;68526;44.600;26.032;2023-04-24T00:12:01;100305.25;;;11.72;69.15
79123;BME280;68526;44.600;26.032;2023-04-24T00:12:19;100300.91;;;11.71;69.67
79123;BME280;68526;44.600;26.032;2023-04-24T00:12:35;100304.44;;;11.72;69.27
79123;BME280;68526;44.600;26.032;2023-04-24T00:12:52;100291.22;;;11.65;69.73
79123;BME280;68526;44.600;26.032;2023-04-24T00:13:08;100305.25;;;11.72;69.70
79123;BME280;68526;44.600;26.032;2023-04-24T00:13:24;100294.94;;;11.69;69.65
79123;BME280;68526;44.600;26.032;2023-04-24T00:13:40;100305.56;;;11.71;69.80
79123;BME280;68526;44.600;26.032;2023-04-24T00:13:56;100300.44;;;11.69;69.59
79123;BME280;68526;44.600;26.032;2023-04-24T00:14:12;100300.44;;;11.69;69.84
79123;BME280;68526;44.600;26.032;2023-04-24T00:14:35;100302.03;;;11.70;69.72
79123;BME280;68526;44.600;26.032;2023-04-24T00:14:51;100298.16;;;11.71;69.42
79123;BME280;68526;44.600;26.032;2023-04-24T00:15:08;100297.34;;;11.71;69.86
79123;BME280;68526;44.600;26.032;2023-04-24T00:15:24;100298.81;;;11.68;69.52
79123;BME280;68526;44.600;26.032;2023-04-24T00:15:40;100303.16;;;11.69;69.86
79123;BME280;68526;44.600;26.032;2023-04-24T00:15:55;100295.25;;;11.68;69.97
79123;BME280;68526;44.600;26.032;2023-04-24T00:16:12;100303.81;;;11.66;69.93
79123;BME280;68526;44.600;26.032;2023-04-24T00:16:28;100299.47;;;11.65;69.97
79123;BME280;68526;44.600;26.032;2023-04-24T00:16:44;100293.81;;;11.62;69.74
79123;BME280;68526;44.600;26.032;2023-04-24T00:17:00;100293.81;;;11.62;69.93
79123;BME280;68526;44.600;26.032;2023-04-24T00:17:17;100290.75;;;11.63;70.25
79123;BME280;68526;44.600;26.032;2023-04-24T00:17:35;100299.31;;;11.62;70.21
79123;BME280;68526;44.600;26.032;2023-04-24T00:17:52;100295.75;;;11.61;70.22
79123;BME280;68526;44.600;26.032;2023-04-24T00:18:08;100299.63;;;11.60;70.13
79123;BME280;68526;44.600;26.032;2023-04-24T00:18:24;100298.38;;;11.58;70.12
79123;BME280;68526;44.600;26.032;2023-04-24T00:18:40;100293.19;;;11.56;70.17
79123;BME280;68526;44.600;26.032;2023-04-24T00:18:56;100294.81;;;11.57;70.18
79123;BME280;68526;44.600;26.032;2023-04-24T00:19:12;100294.03;;;11.57;69.88
79123;BME280;68526;44.600;26.032;2023-04-24T00:19:29;100303.06;;;11.57;70.11
79123;BME280;68526;44.600;26.032;2023-04-24T00:19:45;100299.16;;;11.58;70.28
79123;BME280;68526;44.600;26.032;2023-04-24T00:20:01;100296.75;;;11.57;70.23
79123;BME280;68526;44.600;26.032;2023-04-24T00:20:20;100292.53;;;11.59;70.23
79123;BME280;68526;44.600;26.032;2023-04-24T00:20:36;100298.38;;;11.58;70.34
79123;BME280;68526;44.600;26.032;2023-04-24T00:20:52;100292.06;;;11.57;69.83
79123;BME280;68526;44.600;26.032;2023-04-24T00:21:09;100297.56;;;11.57;70.26
79123;BME280;68526;44.600;26.032;2023-04-24T00:21:25;100296.75;;;11.57;69.99
79123;BME280;68526;44.600;26.032;2023-04-24T00:21:41;100298.38;;;11.58;70.21
79123;BME280;68526;44.600;26.032;2023-04-24T00:21:59;100294.03;;;11.57;70.32
79123;BME280;68526;44.600;26.032;2023-04-24T00:22:15;100293.53;;;11.55;70.31
79123;BME280;68526;44.600;26.032;2023-04-24T00:22:31;100295.94;;;11.56;70.02
79123;BME280;68526;44.600;26.032;2023-04-24T00:22:47;100292.38;;;11.56;70.41
79123;BME280;68526;44.600;26.032;2023-04-24T00:23:03;100287.22;;;11.54;70.45
79123;BME280;68526;44.600;26.032;2023-04-24T00:23:19;100285.63;;;11.53;70.48
79123;BME280;68526;44.600;26.032;2023-04-24T00:23:35;100285.97;;;11.52;70.57
79123;BME280;68526;44.600;26.032;2023-04-24T00:23:51;100297.25;;;11.50;70.51
79123;BME280;68526;44.600;26.032;2023-04-24T00:24:08;100294.84;;;11.48;70.21
79123;BME280;68526;44.600;26.032;2023-04-24T00:24:25;100286.25;;;11.50;70.55
79123;BME280;68526;44.600;26.032;2023-04-24T00:24:41;100292.09;;;11.48;70.21
79123;BME280;68526;44.600;26.032;2023-04-24T00:24:57;100293.22;;;11.47;70.72
79123;BME280;68526;44.600;26.032;2023-04-24T00:25:13;100291.63;;;11.46;70.35
79123;BME280;68526;44.600;26.032;2023-04-24T00:25:28;100285.97;;;11.43;70.47
79123;BME280;68526;44.600;26.032;2023-04-24T00:25:44;100284.53;;;11.45;70.26
79123;BME280;68526;44.600;26.032;2023-04-24T00:26:01;100288.88;;;11.46;70.75
79123;BME280;68526;44.600;26.032;2023-04-24T00:26:17;100293.56;;;11.46;70.61
79123;BME280;68526;44.600;26.032;2023-04-24T00:26:33;100287.75;;;11.47;70.49
79123;BME280;68526;44.600;26.032;2023-04-24T00:26:49;100281.28;;;11.43;70.50
79123;BME280;68526;44.600;26.032;2023-04-24T00:27:04;100288.53;;;11.48;70.73
79123;BME280;68526;44.600;26.032;2023-04-24T00:27:20;100292.41;;;11.47;70.26
79123;BME280;68526;44.600;26.032;2023-04-24T00:27:37;100286.78;;;11.43;70.91
79123;BME280;68526;44.600;26.032;2023-04-24T00:27:54;100275.00;;;11.43;70.92
79123;BME280;68526;44.600;26.032;2023-04-24T00:28:10;100288.06;;;11.46;70.89
79123;BME280;68526;44.600;26.032;2023-04-24T00:28:25;100298.25;;;11.45;70.71
79123;BME280;68526;44.600;26.032;2023-04-24T00:28:41;100287.28;;;11.45;70.84
79123;BME280;68526;44.600;26.032;2023-04-24T00:28:57;100295.50;;;11.45;70.82
79123;BME280;68526;44.600;26.032;2023-04-24T00:29:14;100288.88;;;11.46;70.96
79123;BME280;68526;44.600;26.032;2023-04-24T00:29:30;100284.53;;;11.45;70.54
79123;BME280;68526;44.600;26.032;2023-04-24T00:29:46;100290.00;;;11.45;70.66
79123;BME280;68526;44.600;26.032;2023-04-24T00:30:02;100290.81;;;11.46;70.76
79123;BME280;68526;44.600;26.032;2023-04-24T00:30:18;100293.22;;;11.47;70.76
79123;BME280;68526;44.600;26.032;2023-04-24T00:30:34;100288.88;;;11.46;70.51
79123;BME280;68526;44.600;26.032;2023-04-24T00:30:51;100286.13;;;11.46;70.43
79123;BME280;68526;44.600;26.032;2023-04-24T00:31:07;100286.13;;;11.46;70.63
79123;BME280;68526;44.600;26.032;2023-04-24T00:31:23;100289.69;;;11.47;70.54
79123;BME280;68526;44.600;26.032;2023-04-24T00:31:39;100291.63;;;11.46;70.36
79123;BME280;68526;44.600;26.032;2023-04-24T00:31:55;100287.56;;;11.44;70.57
79123;BME280;68526;44.600;26.032;2023-04-24T00:32:11;100287.28;;;11.45;70.30
79123;BME280;68526;44.600;26.032;2023-04-24T00:32:27;100295.81;;;11.44;70.72
79123;BME280;68526;44.600;26.032;2023-04-24T00:32:44;100290.31;;;11.44;70.80
79123;BME280;68526;44.600;26.032;2023-04-24T00:33:00;100289.50;;;11.43;70.68
79123;BME280;68526;44.600;26.032;2023-04-24T00:33:15;100283.22;;;11.43;70.33
79123;BME280;68526;44.600;26.032;2023-04-24T00:33:31;100289.50;;;11.43;70.69
79123;BME280;68526;44.600;26.032;2023-04-24T00:33:47;100283.22;;;11.43;70.30
79123;BME280;68526;44.600;26.032;2023-04-24T00:34:03;100288.25;;;11.41;70.40
79123;BME280;68526;44.600;26.032;2023-04-24T00:34:21;100285.16;;;11.42;70.32
79123;BME280;68526;44.600;26.032;2023-04-24T00:34:36;100293.06;;;11.44;70.25
79123;BME280;68526;44.600;26.032;2023-04-24T00:34:52;100294.53;;;11.41;70.62
79123;BME280;68526;44.600;26.032;2023-04-24T00:35:08;100296.47;;;11.41;70.70
79123;BME280;68526;44.600;26.032;2023-04-24T00:35:24;100288.56;;;11.39;70.79
79123;BME280;68526;44.600;26.032;2023-04-24T00:35:40;100293.72;;;11.41;70.48
79123;BME280;68526;44.600;26.032;2023-04-24T00:35:57;100291.78;;;11.41;70.25
79123;BME280;68526;44.600;26.032;2023-04-24T00:36:12;100287.44;;;11.40;70.40
79123;BME280;68526;44.600;26.032;2023-04-24T00:36:29;100284.69;;;11.40;70.50
79123;BME280;68526;44.600;26.032;2023-04-24T00:36:46;100284.69;;;11.40;70.78
79123;BME280;68526;44.600;26.032;2023-04-24T00:37:03;100293.72;;;11.41;70.41
79123;BME280;68526;44.600;26.032;2023-04-24T00:37:20;100283.56;;;11.41;70.80
79123;BME280;68526;44.600;26.032;2023-04-24T00:37:36;100286.63;;;11.40;70.64
79123;BME280;68526;44.600;26.032;2023-04-24T00:37:52;100286.13;;;11.38;70.79
79123;BME280;68526;44.600;26.032;2023-04-24T00:38:08;100281.47;;;11.38;70.34
79123;BME280;68526;44.600;26.032;2023-04-24T00:38:23;100289.69;;;11.38;70.53
79123;BME280;68526;44.600;26.032;2023-04-24T00:38:39;100279.06;;;11.37;70.38
79123;BME280;68526;44.600;26.032;2023-04-24T00:38:56;100286.00;;;11.34;70.67
79123;BME280;68526;44.600;26.032;2023-04-24T00:39:12;100283.72;;;11.36;70.49
79123;BME280;68526;44.600;26.032;2023-04-24T00:39:28;100288.09;;;11.37;70.53
79123;BME280;68526;44.600;26.032;2023-04-24T00:39:44;100279.38;;;11.35;70.65
79123;BME280;68526;44.600;26.032;2023-04-24T00:40:00;100288.41;;;11.36;70.58
79123;BME280;68526;44.600;26.032;2023-04-24T00:40:16;100282.94;;;11.36;70.89
79123;BME280;68526;44.600;26.032;2023-04-24T00:40:33;100275.53;;;11.28;71.08
79123;BME280;68526;44.600;26.032;2023-04-24T00:40:49;100287.28;;;11.37;71.03
79123;BME280;68526;44.600;26.032;2023-04-24T00:41:06;100277.28;;;11.32;70.55
79123;BME280;68526;44.600;26.032;2023-04-24T00:41:22;100285.66;;;11.36;71.07
79123;BME280;68526;44.600;26.032;2023-04-24T00:41:38;100285.66;;;11.36;70.81
79123;BME280;68526;44.600;26.032;2023-04-24T00:41:55;100282.94;;;11.36;70.94
79123;BME280;68526;44.600;26.032;2023-04-24T00:42:12;100282.94;;;11.36;70.99
79123;BME280;68526;44.600;26.032;2023-04-24T00:42:28;100284.53;;;11.37;70.61
79123;BME280;68526;44.600;26.032;2023-04-24T00:42:44;100284.53;;;11.37;70.75
79123;BME280;68526;44.600;26.032;2023-04-24T00:43:00;100276.31;;;11.37;70.49
79123;BME280;68526;44.600;26.032;2023-04-24T00:43:16;100281.00;;;11.36;70.69
79123;BME280;68526;44.600;26.032;2023-04-24T00:43:33;100284.53;;;11.37;70.89
79123;BME280;68526;44.600;26.032;2023-04-24T00:43:49;100286.47;;;11.36;70.48
79123;BME280;68526;44.600;26.032;2023-04-24T00:44:04;100280.19;;;11.36;71.05
79123;BME280;68526;44.600;26.032;2023-04-24T00:44:20;100280.53;;;11.34;70.63
79123;BME280;68526;44.600;26.032;2023-04-24T00:44:36;100280.53;;;11.34;70.78
79123;BME280;68526;44.600;26.032;2023-04-24T00:44:53;100274.69;;;11.36;70.68
79123;BME280;68526;44.600;26.032;2023-04-24T00:45:10;100284.88;;;11.35;70.80
79123;BME280;68526;44.600;26.032;2023-04-24T00:45:26;100283.25;;;11.34;70.53
79123;BME280;68526;44.600;26.032;2023-04-24T00:45:42;100280.84;;;11.33;70.51
79123;BME280;68526;44.600;26.032;2023-04-24T00:45:58;100278.59;;;11.35;70.87
79123;BME280;68526;44.600;26.032;2023-04-24T00:46:16;100281.97;;;11.32;70.84
79123;BME280;68526;44.600;26.032;2023-04-24T00:46:33;100277.28;;;11.32;70.57
79123;BME280;68526;44.600;26.032;2023-04-24T00:46:49;100277.28;;;11.32;70.41
79123;BME280;68526;44.600;26.032;2023-04-24T00:47:10;100284.69;;;11.32;70.62
79123;BME280;68526;44.600;26.032;2023-04-24T00:47:28;100282.28;;;11.30;70.68
79123;BME280;68526;44.600;26.032;2023-04-24T00:47:45;100276.47;;;11.32;70.70
79123;BME280;68526;44.600;26.032;2023-04-24T00:48:01;100278.75;;;11.30;70.31
79123;BME280;68526;44.600;26.032;2023-04-24T00:48:19;100274.75;;;11.27;70.18
79123;BME280;68526;44.600;26.032;2023-04-24T00:48:36;100276.34;;;11.28;70.78
79123;BME280;68526;44.600;26.032;2023-04-24T00:48:53;100274.41;;;11.29;70.81
79123;BME280;68526;44.600;26.032;2023-04-24T00:49:08;100278.28;;;11.28;70.53
79123;BME280;68526;44.600;26.032;2023-04-24T00:49:24;100281.03;;;11.28;70.39
79123;BME280;68526;44.600;26.032;2023-04-24T00:49:40;100276.69;;;11.27;70.69
79123;BME280;68526;44.600;26.032;2023-04-24T00:49:57;100281.31;;;11.26;70.94
79123;BME280;68526;44.600;26.032;2023-04-24T00:50:14;100275.38;;;11.24;70.60
79123;BME280;68526;44.600;26.032;2023-04-24T00:50:31;100281.31;;;11.26;70.48
79123;BME280;68526;44.600;26.032;2023-04-24T00:50:47;100271.84;;;11.23;70.79
79123;BME280;68526;44.600;26.032;2023-04-24T00:51:03;100276.19;;;11.24;70.35
79123;BME280;68526;44.600;26.032;2023-04-24T00:51:19;100278.28;;;11.28;70.29
79123;BME280;68526;44.600;26.032;2023-04-24T00:51:36;100278.91;;;11.24;70.80
79123;BME280;68526;44.600;26.032;2023-04-24T00:51:52;100276.50;;;11.23;70.80
79123;BME280;68526;44.600;26.032;2023-04-24T00:52:10;100272.81;;;11.19;70.93
79123;BME280;68526;44.600;26.032;2023-04-24T00:52:28;100272.47;;;11.20;70.93
79123;BME280;68526;44.600;26.032;2023-04-24T00:52:43;100273.94;;;11.18;71.35
79123;BME280;68526;44.600;26.032;2023-04-24T00:53:00;100276.34;;;11.19;71.20
79123;BME280;68526;44.600;26.032;2023-04-24T00:53:16;100278.28;;;11.19;71.17
79123;BME280;68526;44.600;26.032;2023-04-24T00:53:32;100277.94;;;11.20;71.44
79123;BME280;68526;44.600;26.032;2023-04-24T00:53:48;100273.31;;;11.21;71.08
79123;BME280;68526;44.600;26.032;2023-04-24T00:54:04;100266.97;;;11.20;71.35
79123;BME280;68526;44.600;26.032;2023-04-24T00:54:19;100281.53;;;11.21;71.32
79123;BME280;68526;44.600;26.032;2023-04-24T00:54:36;100272.47;;;11.20;71.22
79123;BME280;68526;44.600;26.032;2023-04-24T00:54:52;100277.94;;;11.20;71.00
79123;BME280;68526;44.600;26.032;2023-04-24T00:55:08;100274.41;;;11.20;71.09
79123;BME280;68526;44.600;26.032;2023-04-24T00:55:24;100273.59;;;11.19;71.04
79123;BME280;68526;44.600;26.032;2023-04-24T00:55:41;100277.94;;;11.20;71.01
79123;BME280;68526;44.600;26.032;2023-04-24T00:55:57;100278.28;;;11.19;71.01
79123;BME280;68526;44.600;26.032;2023-04-24T00:56:14;100273.31;;;11.21;71.14
79123;BME280;68526;44.600;26.032;2023-04-24T00:56:30;100270.88;;;11.19;71.01
79123;BME280;68526;44.600;26.032;2023-04-24T00:56:46;100269.25;;;11.18;71.21
79123;BME280;68526;44.600;26.032;2023-04-24T00:57:02;100268.78;;;11.16;71.14
79123;BME280;68526;44.600;26.032;2023-04-24T00:57:19;100277.16;;;11.20;71.29
79123;BME280;68526;44.600;26.032;2023-04-24T00:57:35;100276.34;;;11.19;71.34
79123;BME280;68526;44.600;26.032;2023-04-24T00:57:52;100274.41;;;11.20;70.96
79123;BME280;68526;44.600;26.032;2023-04-24T00:58:08;100276.03;;;11.21;70.79
79123;BME280;68526;44.600;26.032;2023-04-24T00:58:24;100277.94;;;11.20;70.71
79123;BME280;68526;44.600;26.032;2023-04-24T00:58:40;100268.13;;;11.19;70.71
79123;BME280;68526;44.600;26.032;2023-04-24T00:58:57;100272.47;;;11.20;70.91
79123;BME280;68526;44.600;26.032;2023-04-24T00:59:16;100262.97;;;11.18;71.30
79123;BME280;68526;44.600;26.032;2023-04-24T00:59:32;100271.19;;;11.18;71.39
79123;BME280;68526;44.600;26.032;2023-04-24T00:59:48;100267.66;;;11.17;71.23
79123;BME280;68526;44.600;26.032;2023-04-24T01:00:05;100268.44;;;11.18;71.06
79123;BME280;68526;44.600;26.032;2023-04-24T01:00:21;100259.44;;;11.17;71.02
79123;BME280;68526;44.600;26.032;2023-04-24T01:00:38;100267.31;;;11.19;70.92
79123;BME280;68526;44.600;26.032;2023-04-24T01:00:56;100268.44;;;11.18;70.74
79123;BME280;68526;44.600;26.032;2023-04-24T01:01:12;100273.59;;;11.19;70.88
79123;BME280;68526;44.600;26.032;2023-04-24T01:01:29;100272.81;;;11.19;71.03
79123;BME280;68526;44.600;26.032;2023-04-24T01:01:45;100268.91;;;11.20;70.62
79123;BME280;68526;44.600;26.032;2023-04-24T01:02:02;100270.06;;;11.19;70.85
79123;BME280;68526;44.600;26.032;2023-04-24T01:02:19;100268.91;;;11.20;70.98
79123;BME280;68526;44.600;26.032;2023-04-24T01:02:37;100270.06;;;11.19;70.78
79123;BME280;68526;44.600;26.032;2023-04-24T01:02:55;100267.66;;;11.17;71.03
79123;BME280;68526;44.600;26.032;2023-04-24T01:03:13;100264.56;;;11.19;70.81
79123;BME280;68526;44.600;26.032;2023-04-24T01:03:30;100264.09;;;11.17;70.60
79123;BME280;68526;44.600;26.032;2023-04-24T01:03:47;100270.06;;;11.19;70.91
79123;BME280;68526;44.600;26.032;2023-04-24T01:04:04;100266.50;;;11.18;71.24
79123;BME280;68526;44.600;26.032;2023-04-24T01:04:22;100267.66;;;11.17;71.11
79123;BME280;68526;44.600;26.032;2023-04-24T01:04:38;100270.06;;;11.19;71.08
79123;BME280;68526;44.600;26.032;2023-04-24T01:04:54;100268.44;;;11.18;71.05
79123;BME280;68526;44.600;26.032;2023-04-24T01:05:10;100265.72;;;11.18;70.66
79123;BME280;68526;44.600;26.032;2023-04-24T01:05:27;100265.72;;;11.18;71.08
79123;BME280;68526;44.600;26.032;2023-04-24T01:05:44;100268.44;;;11.18;70.98
79123;BME280;68526;44.600;26.032;2023-04-24T01:06:00;100269.25;;;11.18;70.85
79123;BME280;68526;44.600;26.032;2023-04-24T01:06:16;100273.13;;;11.17;71.07
79123;BME280;68526;44.600;26.032;2023-04-24T01:06:32;100269.59;;;11.17;70.95
79123;BME280;68526;44.600;26.032;2023-04-24T01:06:50;100271.53;;;11.16;71.13
79123;BME280;68526;44.600;26.032;2023-04-24T01:07:06;100271.03;;;11.14;71.00
79123;BME280;68526;44.600;26.032;2023-04-24T01:07:27;100264.75;;;11.14;70.85
79123;BME280;68526;44.600;26.032;2023-04-24T01:07:45;100270.72;;;11.16;71.08
79123;BME280;68526;44.600;26.032;2023-04-24T01:08:01;100268.63;;;11.13;70.63
79123;BME280;68526;44.600;26.032;2023-04-24T01:08:17;100268.94;;;11.11;70.73
79123;BME280;68526;44.600;26.032;2023-04-24T01:08:34;100269.75;;;11.12;71.06
79123;BME280;68526;44.600;26.032;2023-04-24T01:08:52;100268.63;;;11.13;70.92
79123;BME280;68526;44.600;26.032;2023-04-24T01:09:09;100271.38;;;11.13;70.61
79123;BME280;68526;44.600;26.032;2023-04-24T01:09:26;100273.97;;;11.09;70.71
79123;BME280;68526;44.600;26.032;2023-04-24T01:09:43;100274.78;;;11.10;70.96
79123;BME280;68526;44.600;26.032;2023-04-24T01:10:03;100274.78;;;11.10;71.01
79123;BME280;68526;44.600;26.032;2023-04-24T01:10:19;100273.97;;;11.09;71.00
79123;BME280;68526;44.600;26.032;2023-04-24T01:10:36;100271.53;;;11.08;71.17
79123;BME280;68526;44.600;26.032;2023-04-24T01:10:54;100263.63;;;11.06;71.30
79123;BME280;68526;44.600;26.032;2023-04-24T01:11:11;100271.84;;;11.06;71.21
79123;BME280;68526;44.600;26.032;2023-04-24T01:11:27;100265.91;;;11.04;71.37
79123;BME280;68526;44.600;26.032;2023-04-24T01:11:43;100275.75;;;11.05;70.66
79123;BME280;68526;44.600;26.032;2023-04-24T01:12:00;100271.38;;;11.04;70.90
79123;BME280;68526;44.600;26.032;2023-04-24T01:12:17;100273.63;;;11.02;70.91
79123;BME280;68526;44.600;26.032;2023-04-24T01:12:33;100276.38;;;11.02;71.18
79123;BME280;68526;44.600;26.032;2023-04-24T01:12:50;100269.78;;;11.03;71.37
79123;BME280;68526;44.600;26.032;2023-04-24T01:13:07;100266.06;;;10.99;71.37
79123;BME280;68526;44.600;26.032;2023-04-24T01:13:24;100266.53;;;11.01;71.53
79123;BME280;68526;44.600;26.032;2023-04-24T01:13:41;100269.63;;;11.00;71.63
79123;BME280;68526;44.600;26.032;2023-04-24T01:13:57;100263.97;;;10.96;71.69
79123;BME280;68526;44.600;26.032;2023-04-24T01:14:14;100268.34;;;10.97;71.65
79123;BME280;68526;44.600;26.032;2023-04-24T01:14:30;100270.25;;;10.96;71.70
79123;BME280;68526;44.600;26.032;2023-04-24T01:14:46;100269.16;;;10.98;71.44
79123;BME280;68526;44.600;26.032;2023-04-24T01:15:03;100273.00;;;10.96;71.72
79123;BME280;68526;44.600;26.032;2023-04-24T01:15:20;100271.88;;;10.98;71.84
79123;BME280;68526;44.600;26.032;2023-04-24T01:15:36;100268.97;;;10.94;72.13
79123;BME280;68526;44.600;26.032;2023-04-24T01:15:52;100272.03;;;10.92;71.80
79123;BME280;68526;44.600;26.032;2023-04-24T01:16:08;100269.31;;;10.92;71.64
79123;BME280;68526;44.600;26.032;2023-04-24T01:16:24;100276.41;;;10.93;71.78
79123;BME280;68526;44.600;26.032;2023-04-24T01:16:41;100272.84;;;10.93;71.78
79123;BME280;68526;44.600;26.032;2023-04-24T01:16:57;100267.38;;;10.93;71.70
79123;BME280;68526;44.600;26.032;2023-04-24T01:17:13;100274.78;;;10.92;72.20
79123;BME280;68526;44.600;26.032;2023-04-24T01:17:29;100271.25;;;10.92;72.23
79123;BME280;68526;44.600;26.032;2023-04-24T01:17:45;100273.19;;;10.91;72.10
79123;BME280;68526;44.600;26.032;2023-04-24T01:18:01;100276.22;;;10.90;71.68
79123;BME280;68526;44.600;26.032;2023-04-24T01:18:18;100273.00;;;10.88;71.85
79123;BME280;68526;44.600;26.032;2023-04-24T01:18:33;100267.53;;;10.88;71.78
79123;BME280;68526;44.600;26.032;2023-04-24T01:18:49;100269.81;;;10.86;71.81
79123;BME280;68526;44.600;26.032;2023-04-24T01:19:06;100270.91;;;10.85;71.85
79123;BME280;68526;44.600;26.032;2023-04-24T01:19:22;100266.88;;;10.82;72.08
79123;BME280;68526;44.600;26.032;2023-04-24T01:19:38;100264.16;;;10.82;71.94
79123;BME280;68526;44.600;26.032;2023-04-24T01:19:54;100271.22;;;10.83;71.97
79123;BME280;68526;44.600;26.032;2023-04-24T01:20:12;100273.97;;;10.83;72.25
79123;BME280;68526;44.600;26.032;2023-04-24T01:20:29;100267.34;;;10.84;71.65
79123;BME280;68526;44.600;26.032;2023-04-24T01:20:45;100271.22;;;10.83;71.97
79123;BME280;68526;44.600;26.032;2023-04-24T01:21:03;100270.09;;;10.84;71.76
79123;BME280;68526;44.600;26.032;2023-04-24T01:21:20;100262.22;;;10.83;71.67
79123;BME280;68526;44.600;26.032;2023-04-24T01:21:37;100265.75;;;10.83;71.38
79123;BME280;68526;44.600;26.032;2023-04-24T01:21:58;100269.63;;;10.82;71.64
79123;BME280;68526;44.600;26.032;2023-04-24T01:22:15;100270.44;;;10.83;71.40
79123;BME280;68526;44.600;26.032;2023-04-24T01:22:32;100264.94;;;10.83;71.34
79123;BME280;68526;44.600;26.032;2023-04-24T01:22:48;100265.75;;;10.83;71.26
79123;BME280;68526;44.600;26.032;2023-04-24T01:23:05;100272.84;;;10.84;71.08
79123;BME280;68526;44.600;26.032;2023-04-24T01:23:21;100265.75;;;10.83;70.92
79123;BME280;68526;44.600;26.032;2023-04-24T01:23:37;100261.06;;;10.84;71.07
79123;BME280;68526;44.600;26.032;2023-04-24T01:23:53;100261.41;;;10.82;71.04
79123;BME280;68526;44.600;26.032;2023-04-24T01:24:09;100265.28;;;10.81;70.86
79123;BME280;68526;44.600;26.032;2023-04-24T01:24:25;100268.03;;;10.81;70.93
79123;BME280;68526;44.600;26.032;2023-04-24T01:24:42;100262.53;;;10.81;71.32
79123;BME280;68526;44.600;26.032;2023-04-24T01:24:59;100264.47;;;10.81;70.96
79123;BME280;68526;44.600;26.032;2023-04-24T01:25:15;100262.06;;;10.79;70.97